sensor_id;sensor_type;location;lat;lon;timestamp;P1;durP1;ratioP1;P2;durP2;ratioP2
14191;SDS011;7177;48.572;7.838;2023-02-28T00:00:10;5.53;;;3.17;;
14191;SDS011;7177;48.572;7.838;2023-02-28T00:02:37;4.57;;;3.58;;
14191;SDS011;7177;48.572;7.838;2023-02-28T00:05:07;9.10;;;5.43;;
14191;SDS011;7177;48.572;7.838;2023-02-28T00:07:35;10.38;;;5.70;;
14191;SDS011;7177;48.572;7.838;2023-02-28T00:10:00;4.38;;;3.45;;
14191;SDS011;7177;48.572;7.838;2023-02-28T00:12:26;6.20;;;3.87;;
14191;SDS011;7177;48.572;7.838;2023-02-28T00:14:52;5.97;;;3.90;;
14191;SDS011;7177;48.572;7.838;2023-02-28T00:17:18;5.37;;;3.90;;
14191;SDS011;7177;48.572;7.838;2023-02-28T00:19:46;5.90;;;3.80;;
14191;SDS011;7177;48.572;7.838;2023-02-28T00:22:13;5.05;;;3.42;;
14191;SDS011;7177;48.572;7.838;2023-02-28T00:24:39;4.53;;;3.60;;
14191;SDS011;7177;48.572;7.838;2023-02-28T00:27:04;5.60;;;4.23;;
14191;SDS011;7177;48.572;7.838;2023-02-28T00:29:30;5.20;;;4.00;;
14191;SDS011;7177;48.572;7.838;2023-02-28T00:31:55;7.07;;;4.50;;
14191;SDS011;7177;48.572;7.838;2023-02-28T00:34:21;5.43;;;4.20;;
14191;SDS011;7177;48.572;7.838;2023-02-28T00:36:46;4.93;;;3.90;;
14191;SDS011;7177;48.572;7.838;2023-02-28T00:39:15;4.38;;;3.70;;
14191;SDS011;7177;48.572;7.838;2023-02-28T00:41:41;5.75;;;3.75;;
14191;SDS011;7177;48.572;7.838;2023-02-28T00:44:07;6.10;;;3.93;;
14191;SDS011;7177;48.572;7.838;2023-02-28T00:46:32;5.77;;;3.83;;
14191;SDS011;7177;48.572;7.838;2023-02-28T00:48:58;7.47;;;4.23;;
14191;SDS011;7177;48.572;7.838;2023-02-28T00:51:23;5.90;;;4.00;;
14191;SDS011;7177;48.572;7.838;2023-02-28T00:53:49;6.20;;;3.67;;
14191;SDS011;7177;48.572;7.838;2023-02-28T00:56:14;5.90;;;4.40;;
14191;SDS011;7177;48.572;7.838;2023-02-28T00:58:40;6.80;;;4.23;;
14191;SDS011;7177;48.572;7.838;2023-02-28T01:01:05;7.90;;;4.20;;
14191;SDS011;7177;48.572;7.838;2023-02-28T01:03:31;5.50;;;3.80;;
14191;SDS011;7177;48.572;7.838;2023-02-28T01:05:57;6.03;;;4.37;;
14191;SDS011;7177;48.572;7.838;2023-02-28T01:08:23;5.50;;;4.30;;
14191;SDS011;7177;48.572;7.838;2023-02-28T01:10:49;6.17;;;4.30;;
14191;SDS011;7177;48.572;7.838;2023-02-28T01:13:14;4.37;;;3.73;;
14191;SDS011;7177;48.572;7.838;2023-02-28T01:15:41;4.93;;;4.00;;
14191;SDS011;7177;48.572;7.838;2023-02-28T01:18:16;7.32;;;4.15;;
14191;SDS011;7177;48.572;7.838;2023-02-28T01:20:42;6.23;;;4.33;;
14191;SDS011;7177;48.572;7.838;2023-02-28T01:23:07;5.30;;;4.13;;
14191;SDS011;7177;48.572;7.838;2023-02-28T01:25:34;5.03;;;3.60;;
14191;SDS011;7177;48.572;7.838;2023-02-28T01:28:00;4.13;;;3.72;;
14191;SDS011;7177;48.572;7.838;2023-02-28T01:30:26;5.13;;;4.40;;
14191;SDS011;7177;48.572;7.838;2023-02-28T01:32:51;5.00;;;4.40;;
14191;SDS011;7177;48.572;7.838;2023-02-28T01:35:18;6.57;;;4.30;;
14191;SDS011;7177;48.572;7.838;2023-02-28T01:37:44;7.17;;;4.73;;
14191;SDS011;7177;48.572;7.838;2023-02-28T01:40:09;5.27;;;4.40;;
14191;SDS011;7177;48.572;7.838;2023-02-28T01:42:36;4.95;;;4.07;;
14191;SDS011;7177;48.572;7.838;2023-02-28T01:45:03;7.63;;;4.67;;
14191;SDS011;7177;48.572;7.838;2023-02-28T01:47:38;5.93;;;4.78;;
14191;SDS011;7177;48.572;7.838;2023-02-28T01:50:09;7.88;;;4.28;;
14191;SDS011;7177;48.572;7.838;2023-02-28T01:52:43;7.22;;;4.88;;
14191;SDS011;7177;48.572;7.838;2023-02-28T01:55:10;5.78;;;4.55;;
14191;SDS011;7177;48.572;7.838;2023-02-28T01:57:41;6.03;;;4.70;;
14191;SDS011;7177;48.572;7.838;2023-02-28T02:00:12;5.32;;;4.53;;
14191;SDS011;7177;48.572;7.838;2023-02-28T02:02:41;5.32;;;4.45;;
14191;SDS011;7177;48.572;7.838;2023-02-28T02:05:29;8.48;;;5.28;;
14191;SDS011;7177;48.572;7.838;2023-02-28T02:07:56;4.93;;;4.25;;
14191;SDS011;7177;48.572;7.838;2023-02-28T02:10:30;6.25;;;4.45;;
14191;SDS011;7177;48.572;7.838;2023-02-28T02:16:29;5.57;;;4.53;;
14191;SDS011;7177;48.572;7.838;2023-02-28T02:27:20;5.22;;;4.68;;
14191;SDS011;7177;48.572;7.838;2023-02-28T02:30:02;6.43;;;5.00;;
14191;SDS011;7177;48.572;7.838;2023-02-28T02:43:52;8.77;;;5.28;;
14191;SDS011;7177;48.572;7.838;2023-02-28T02:46:25;7.60;;;4.90;;
14191;SDS011;7177;48.572;7.838;2023-02-28T02:48:54;7.15;;;4.97;;
14191;SDS011;7177;48.572;7.838;2023-02-28T02:51:23;5.95;;;4.45;;
14191;SDS011;7177;48.572;7.838;2023-02-28T02:53:50;6.63;;;5.30;;
14191;SDS011;7177;48.572;7.838;2023-02-28T02:56:21;7.43;;;5.47;;
14191;SDS011;7177;48.572;7.838;2023-02-28T02:58:51;8.07;;;5.28;;
14191;SDS011;7177;48.572;7.838;2023-02-28T03:01:21;6.03;;;5.18;;
14191;SDS011;7177;48.572;7.838;2023-02-28T03:03:56;8.05;;;4.68;;
14191;SDS011;7177;48.572;7.838;2023-02-28T03:06:25;7.22;;;5.30;;
14191;SDS011;7177;48.572;7.838;2023-02-28T03:08:51;9.50;;;6.22;;
14191;SDS011;7177;48.572;7.838;2023-02-28T03:11:18;6.35;;;4.95;;
14191;SDS011;7177;48.572;7.838;2023-02-28T03:16:41;6.10;;;5.18;;
14191;SDS011;7177;48.572;7.838;2023-02-28T03:22:32;6.55;;;5.57;;
14191;SDS011;7177;48.572;7.838;2023-02-28T03:27:56;8.25;;;4.93;;
14191;SDS011;7177;48.572;7.838;2023-02-28T03:30:42;6.93;;;5.13;;
14191;SDS011;7177;48.572;7.838;2023-02-28T03:33:17;7.53;;;5.22;;
14191;SDS011;7177;48.572;7.838;2023-02-28T03:36:02;8.68;;;5.38;;
14191;SDS011;7177;48.572;7.838;2023-02-28T03:38:33;6.45;;;4.82;;
14191;SDS011;7177;48.572;7.838;2023-02-28T03:41:05;7.72;;;5.03;;
14191;SDS011;7177;48.572;7.838;2023-02-28T03:43:38;8.93;;;5.32;;
14191;SDS011;7177;48.572;7.838;2023-02-28T03:46:09;7.82;;;5.40;;
14191;SDS011;7177;48.572;7.838;2023-02-28T03:48:42;6.80;;;5.60;;
14191;SDS011;7177;48.572;7.838;2023-02-28T03:51:12;7.22;;;5.35;;
14191;SDS011;7177;48.572;7.838;2023-02-28T03:53:46;6.38;;;5.30;;
14191;SDS011;7177;48.572;7.838;2023-02-28T03:59:21;7.43;;;5.60;;
14191;SDS011;7177;48.572;7.838;2023-02-28T04:01:59;10.48;;;6.45;;
14191;SDS011;7177;48.572;7.838;2023-02-28T04:04:25;7.17;;;5.43;;
14191;SDS011;7177;48.572;7.838;2023-02-28T04:06:51;7.53;;;5.77;;
14191;SDS011;7177;48.572;7.838;2023-02-28T04:09:18;7.63;;;5.88;;
14191;SDS011;7177;48.572;7.838;2023-02-28T04:11:49;7.27;;;5.77;;
14191;SDS011;7177;48.572;7.838;2023-02-28T04:14:20;6.45;;;5.40;;
14191;SDS011;7177;48.572;7.838;2023-02-28T04:16:46;8.80;;;6.70;;
14191;SDS011;7177;48.572;7.838;2023-02-28T04:19:12;7.17;;;6.00;;
14191;SDS011;7177;48.572;7.838;2023-02-28T04:21:43;8.68;;;6.50;;
14191;SDS011;7177;48.572;7.838;2023-02-28T04:24:14;7.07;;;5.78;;
14191;SDS011;7177;48.572;7.838;2023-02-28T04:26:43;7.93;;;6.32;;
14191;SDS011;7177;48.572;7.838;2023-02-28T04:29:11;8.98;;;6.00;;
14191;SDS011;7177;48.572;7.838;2023-02-28T04:31:38;6.43;;;5.72;;
14191;SDS011;7177;48.572;7.838;2023-02-28T04:34:04;7.55;;;6.35;;
14191;SDS011;7177;48.572;7.838;2023-02-28T04:36:30;8.60;;;6.30;;
14191;SDS011;7177;48.572;7.838;2023-02-28T04:38:56;11.17;;;6.10;;
14191;SDS011;7177;48.572;7.838;2023-02-28T04:41:21;8.60;;;6.10;;
14191;SDS011;7177;48.572;7.838;2023-02-28T04:43:47;7.18;;;6.10;;
14191;SDS011;7177;48.572;7.838;2023-02-28T04:46:13;9.30;;;6.17;;
14191;SDS011;7177;48.572;7.838;2023-02-28T04:48:39;7.93;;;6.30;;
14191;SDS011;7177;48.572;7.838;2023-02-28T04:51:09;8.80;;;6.70;;
14191;SDS011;7177;48.572;7.838;2023-02-28T04:53:39;8.52;;;6.55;;
14191;SDS011;7177;48.572;7.838;2023-02-28T04:56:06;7.82;;;6.40;;
14191;SDS011;7177;48.572;7.838;2023-02-28T04:58:32;11.32;;;5.93;;
14191;SDS011;7177;48.572;7.838;2023-02-28T05:01:02;8.25;;;6.80;;
14191;SDS011;7177;48.572;7.838;2023-02-28T05:03:28;9.00;;;7.32;;
14191;SDS011;7177;48.572;7.838;2023-02-28T05:05:53;7.67;;;6.57;;
14191;SDS011;7177;48.572;7.838;2023-02-28T05:08:19;8.93;;;6.83;;
14191;SDS011;7177;48.572;7.838;2023-02-28T05:10:44;9.37;;;6.80;;
14191;SDS011;7177;48.572;7.838;2023-02-28T05:13:13;9.90;;;6.53;;
14191;SDS011;7177;48.572;7.838;2023-02-28T05:15:39;9.32;;;6.35;;
14191;SDS011;7177;48.572;7.838;2023-02-28T05:18:05;7.80;;;6.97;;
14191;SDS011;7177;48.572;7.838;2023-02-28T05:20:30;9.43;;;7.20;;
14191;SDS011;7177;48.572;7.838;2023-02-28T05:22:56;10.77;;;7.00;;
14191;SDS011;7177;48.572;7.838;2023-02-28T05:25:24;9.90;;;6.93;;
14191;SDS011;7177;48.572;7.838;2023-02-28T05:27:49;10.27;;;7.40;;
14191;SDS011;7177;48.572;7.838;2023-02-28T05:30:15;9.48;;;7.05;;
14191;SDS011;7177;48.572;7.838;2023-02-28T05:32:41;10.70;;;7.57;;
14191;SDS011;7177;48.572;7.838;2023-02-28T05:35:10;9.82;;;7.00;;
14191;SDS011;7177;48.572;7.838;2023-02-28T05:37:37;9.15;;;7.43;;
14191;SDS011;7177;48.572;7.838;2023-02-28T05:40:04;10.45;;;7.22;;
14191;SDS011;7177;48.572;7.838;2023-02-28T05:42:35;8.60;;;6.90;;
14191;SDS011;7177;48.572;7.838;2023-02-28T05:45:02;12.77;;;7.63;;
14191;SDS011;7177;48.572;7.838;2023-02-28T05:47:28;9.23;;;7.22;;
14191;SDS011;7177;48.572;7.838;2023-02-28T05:49:53;9.53;;;7.30;;
14191;SDS011;7177;48.572;7.838;2023-02-28T05:52:19;10.13;;;7.40;;
14191;SDS011;7177;48.572;7.838;2023-02-28T05:54:45;9.73;;;7.57;;
14191;SDS011;7177;48.572;7.838;2023-02-28T05:57:11;11.00;;;7.72;;
14191;SDS011;7177;48.572;7.838;2023-02-28T05:59:37;9.40;;;7.60;;
14191;SDS011;7177;48.572;7.838;2023-02-28T06:02:04;10.20;;;7.10;;
14191;SDS011;7177;48.572;7.838;2023-02-28T06:04:31;10.82;;;8.68;;
14191;SDS011;7177;48.572;7.838;2023-02-28T06:06:56;9.87;;;7.50;;
14191;SDS011;7177;48.572;7.838;2023-02-28T06:09:22;10.40;;;7.37;;
14191;SDS011;7177;48.572;7.838;2023-02-28T06:11:48;12.43;;;8.50;;
14191;SDS011;7177;48.572;7.838;2023-02-28T06:14:17;9.87;;;7.10;;
14191;SDS011;7177;48.572;7.838;2023-02-28T06:16:44;11.27;;;7.70;;
14191;SDS011;7177;48.572;7.838;2023-02-28T06:19:10;10.63;;;7.93;;
14191;SDS011;7177;48.572;7.838;2023-02-28T06:21:36;8.57;;;7.57;;
14191;SDS011;7177;48.572;7.838;2023-02-28T06:24:02;10.70;;;7.95;;
14191;SDS011;7177;48.572;7.838;2023-02-28T06:26:28;11.20;;;7.20;;
14191;SDS011;7177;48.572;7.838;2023-02-28T06:28:54;11.27;;;8.07;;
14191;SDS011;7177;48.572;7.838;2023-02-28T06:31:20;11.73;;;8.70;;
14191;SDS011;7177;48.572;7.838;2023-02-28T06:33:47;11.50;;;8.75;;
14191;SDS011;7177;48.572;7.838;2023-02-28T06:36:13;11.82;;;7.90;;
14191;SDS011;7177;48.572;7.838;2023-02-28T06:38:40;21.75;;;12.27;;
14191;SDS011;7177;48.572;7.838;2023-02-28T06:41:06;18.20;;;11.40;;
14191;SDS011;7177;48.572;7.838;2023-02-28T06:43:33;12.65;;;8.80;;
14191;SDS011;7177;48.572;7.838;2023-02-28T06:46:02;16.95;;;11.35;;
14191;SDS011;7177;48.572;7.838;2023-02-28T06:48:29;11.55;;;8.27;;
14191;SDS011;7177;48.572;7.838;2023-02-28T06:51:05;13.00;;;9.43;;
14191;SDS011;7177;48.572;7.838;2023-02-28T06:53:33;11.15;;;7.85;;
14191;SDS011;7177;48.572;7.838;2023-02-28T06:56:03;13.80;;;9.38;;
14191;SDS011;7177;48.572;7.838;2023-02-28T06:58:32;12.63;;;8.80;;
14191;SDS011;7177;48.572;7.838;2023-02-28T07:00:58;13.93;;;8.95;;
14191;SDS011;7177;48.572;7.838;2023-02-28T07:03:24;10.80;;;8.07;;
14191;SDS011;7177;48.572;7.838;2023-02-28T07:05:49;11.60;;;9.07;;
14191;SDS011;7177;48.572;7.838;2023-02-28T07:08:15;13.50;;;9.67;;
14191;SDS011;7177;48.572;7.838;2023-02-28T07:10:41;12.60;;;8.80;;
14191;SDS011;7177;48.572;7.838;2023-02-28T07:13:07;14.43;;;10.37;;
14191;SDS011;7177;48.572;7.838;2023-02-28T07:15:33;13.55;;;9.98;;
14191;SDS011;7177;48.572;7.838;2023-02-28T07:17:59;13.57;;;10.43;;
14191;SDS011;7177;48.572;7.838;2023-02-28T07:20:25;14.90;;;10.03;;
14191;SDS011;7177;48.572;7.838;2023-02-28T07:22:51;15.53;;;11.17;;
14191;SDS011;7177;48.572;7.838;2023-02-28T07:25:24;13.70;;;9.55;;
14191;SDS011;7177;48.572;7.838;2023-02-28T07:27:52;12.63;;;10.10;;
14191;SDS011;7177;48.572;7.838;2023-02-28T07:30:18;12.23;;;9.73;;
14191;SDS011;7177;48.572;7.838;2023-02-28T07:32:43;13.53;;;10.60;;
14191;SDS011;7177;48.572;7.838;2023-02-28T07:35:09;13.07;;;9.43;;
14191;SDS011;7177;48.572;7.838;2023-02-28T07:37:35;11.87;;;9.43;;
14191;SDS011;7177;48.572;7.838;2023-02-28T07:40:02;12.27;;;9.52;;
14191;SDS011;7177;48.572;7.838;2023-02-28T07:42:31;15.15;;;9.80;;
14191;SDS011;7177;48.572;7.838;2023-02-28T07:44:57;15.50;;;10.50;;
14191;SDS011;7177;48.572;7.838;2023-02-28T07:47:23;14.38;;;10.05;;
14191;SDS011;7177;48.572;7.838;2023-02-28T07:49:49;11.83;;;9.77;;
14191;SDS011;7177;48.572;7.838;2023-02-28T07:52:14;12.53;;;10.00;;
14191;SDS011;7177;48.572;7.838;2023-02-28T07:54:40;12.67;;;9.97;;
14191;SDS011;7177;48.572;7.838;2023-02-28T07:57:05;11.57;;;9.63;;
14191;SDS011;7177;48.572;7.838;2023-02-28T07:59:31;15.80;;;10.57;;
14191;SDS011;7177;48.572;7.838;2023-02-28T08:01:57;14.07;;;10.03;;
14191;SDS011;7177;48.572;7.838;2023-02-28T08:04:23;16.67;;;11.68;;
14191;SDS011;7177;48.572;7.838;2023-02-28T08:06:48;12.50;;;10.23;;
14191;SDS011;7177;48.572;7.838;2023-02-28T08:09:16;16.42;;;11.32;;
14191;SDS011;7177;48.572;7.838;2023-02-28T08:11:42;14.10;;;10.73;;
14191;SDS011;7177;48.572;7.838;2023-02-28T08:14:07;13.87;;;10.23;;
14191;SDS011;7177;48.572;7.838;2023-02-28T08:16:34;13.63;;;10.70;;
14191;SDS011;7177;48.572;7.838;2023-02-28T08:19:00;13.10;;;9.73;;
14191;SDS011;7177;48.572;7.838;2023-02-28T08:21:25;10.70;;;8.87;;
14191;SDS011;7177;48.572;7.838;2023-02-28T08:23:51;12.87;;;9.70;;
14191;SDS011;7177;48.572;7.838;2023-02-28T08:26:17;13.93;;;11.20;;
14191;SDS011;7177;48.572;7.838;2023-02-28T08:28:43;15.07;;;11.25;;
14191;SDS011;7177;48.572;7.838;2023-02-28T08:31:10;12.18;;;9.40;;
14191;SDS011;7177;48.572;7.838;2023-02-28T08:33:37;12.60;;;9.65;;
14191;SDS011;7177;48.572;7.838;2023-02-28T08:36:04;13.38;;;10.40;;
14191;SDS011;7177;48.572;7.838;2023-02-28T08:38:30;11.48;;;9.30;;
14191;SDS011;7177;48.572;7.838;2023-02-28T08:40:59;11.83;;;9.60;;
14191;SDS011;7177;48.572;7.838;2023-02-28T08:43:27;12.02;;;9.40;;
14191;SDS011;7177;48.572;7.838;2023-02-28T08:45:54;11.95;;;9.32;;
14191;SDS011;7177;48.572;7.838;2023-02-28T08:48:21;12.88;;;9.43;;
14191;SDS011;7177;48.572;7.838;2023-02-28T08:50:54;12.98;;;10.18;;
14191;SDS011;7177;48.572;7.838;2023-02-28T08:53:24;13.57;;;9.52;;
14191;SDS011;7177;48.572;7.838;2023-02-28T08:55:56;13.77;;;9.83;;
14191;SDS011;7177;48.572;7.838;2023-02-28T08:58:27;12.77;;;8.98;;
14191;SDS011;7177;48.572;7.838;2023-02-28T09:00:53;12.43;;;8.95;;
14191;SDS011;7177;48.572;7.838;2023-02-28T09:03:19;12.55;;;9.40;;
14191;SDS011;7177;48.572;7.838;2023-02-28T09:05:58;11.15;;;9.32;;
14191;SDS011;7177;48.572;7.838;2023-02-28T09:08:25;12.93;;;9.25;;
14191;SDS011;7177;48.572;7.838;2023-02-28T09:10:52;13.05;;;9.30;;
14191;SDS011;7177;48.572;7.838;2023-02-28T09:13:19;11.38;;;9.20;;
14191;SDS011;7177;48.572;7.838;2023-02-28T09:15:44;10.23;;;8.87;;
14191;SDS011;7177;48.572;7.838;2023-02-28T09:18:10;13.67;;;9.37;;
14191;SDS011;7177;48.572;7.838;2023-02-28T09:20:39;11.77;;;9.23;;
14191;SDS011;7177;48.572;7.838;2023-02-28T09:23:08;12.82;;;9.38;;
14191;SDS011;7177;48.572;7.838;2023-02-28T09:25:36;12.45;;;9.15;;
14191;SDS011;7177;48.572;7.838;2023-02-28T09:28:02;15.05;;;10.32;;
14191;SDS011;7177;48.572;7.838;2023-02-28T09:30:27;11.13;;;8.77;;
14191;SDS011;7177;48.572;7.838;2023-02-28T09:32:53;12.27;;;9.80;;
14191;SDS011;7177;48.572;7.838;2023-02-28T09:35:19;12.93;;;9.90;;
14191;SDS011;7177;48.572;7.838;2023-02-28T09:37:46;12.50;;;9.73;;
14191;SDS011;7177;48.572;7.838;2023-02-28T09:40:16;11.98;;;9.35;;
14191;SDS011;7177;48.572;7.838;2023-02-28T09:42:44;12.82;;;9.75;;
14191;SDS011;7177;48.572;7.838;2023-02-28T09:45:19;10.95;;;9.05;;
14191;SDS011;7177;48.572;7.838;2023-02-28T09:47:50;12.20;;;9.43;;
14191;SDS011;7177;48.572;7.838;2023-02-28T09:52:51;13.23;;;10.25;;
14191;SDS011;7177;48.572;7.838;2023-02-28T09:55:22;13.65;;;9.32;;
14191;SDS011;7177;48.572;7.838;2023-02-28T09:57:52;15.43;;;11.40;;
14191;SDS011;7177;48.572;7.838;2023-02-28T10:00:22;12.80;;;10.00;;
14191;SDS011;7177;48.572;7.838;2023-02-28T10:08:31;15.80;;;11.45;;
14191;SDS011;7177;48.572;7.838;2023-02-28T10:11:07;16.00;;;10.45;;
14191;SDS011;7177;48.572;7.838;2023-02-28T10:16:24;14.70;;;10.90;;
14191;SDS011;7177;48.572;7.838;2023-02-28T10:23:51;41.67;;;21.75;;
14191;SDS011;7177;48.572;7.838;2023-02-28T10:26:21;50.70;;;25.88;;
14191;SDS011;7177;48.572;7.838;2023-02-28T10:28:48;49.20;;;22.80;;
14191;SDS011;7177;48.572;7.838;2023-02-28T10:31:18;31.90;;;18.52;;
14191;SDS011;7177;48.572;7.838;2023-02-28T10:33:45;16.80;;;12.32;;
14191;SDS011;7177;48.572;7.838;2023-02-28T10:36:15;25.63;;;12.30;;
14191;SDS011;7177;48.572;7.838;2023-02-28T10:38:43;13.32;;;10.80;;
14191;SDS011;7177;48.572;7.838;2023-02-28T10:41:13;14.98;;;10.57;;
14191;SDS011;7177;48.572;7.838;2023-02-28T10:43:41;13.25;;;10.50;;
14191;SDS011;7177;48.572;7.838;2023-02-28T10:46:11;14.40;;;10.18;;
14191;SDS011;7177;48.572;7.838;2023-02-28T10:48:48;13.13;;;10.25;;
14191;SDS011;7177;48.572;7.838;2023-02-28T10:51:24;16.10;;;11.23;;
14191;SDS011;7177;48.572;7.838;2023-02-28T10:53:50;13.83;;;10.53;;
14191;SDS011;7177;48.572;7.838;2023-02-28T10:56:18;15.23;;;11.07;;
14191;SDS011;7177;48.572;7.838;2023-02-28T11:01:37;16.98;;;10.38;;
14191;SDS011;7177;48.572;7.838;2023-02-28T11:04:16;13.63;;;10.13;;
14191;SDS011;7177;48.572;7.838;2023-02-28T11:07:39;15.00;;;10.75;;
14191;SDS011;7177;48.572;7.838;2023-02-28T11:09:53;17.67;;;11.98;;
14191;SDS011;7177;48.572;7.838;2023-02-28T11:12:37;15.77;;;11.38;;
14191;SDS011;7177;48.572;7.838;2023-02-28T11:15:05;15.18;;;10.98;;
14191;SDS011;7177;48.572;7.838;2023-02-28T11:17:53;14.77;;;10.80;;
14191;SDS011;7177;48.572;7.838;2023-02-28T11:20:21;18.55;;;10.50;;
14191;SDS011;7177;48.572;7.838;2023-02-28T11:22:49;14.27;;;10.40;;
14191;SDS011;7177;48.572;7.838;2023-02-28T11:25:19;15.45;;;10.82;;
14191;SDS011;7177;48.572;7.838;2023-02-28T11:27:58;13.45;;;11.45;;
14191;SDS011;7177;48.572;7.838;2023-02-28T11:30:34;17.88;;;11.63;;
14191;SDS011;7177;48.572;7.838;2023-02-28T11:33:21;15.60;;;11.13;;
14191;SDS011;7177;48.572;7.838;2023-02-28T11:36:00;16.13;;;12.05;;
14191;SDS011;7177;48.572;7.838;2023-02-28T11:38:29;14.55;;;11.18;;
14191;SDS011;7177;48.572;7.838;2023-02-28T11:41:02;14.48;;;11.45;;
14191;SDS011;7177;48.572;7.838;2023-02-28T11:46:29;19.00;;;11.52;;
14191;SDS011;7177;48.572;7.838;2023-02-28T11:51:47;18.30;;;12.18;;
14191;SDS011;7177;48.572;7.838;2023-02-28T11:54:32;13.75;;;10.70;;
14191;SDS011;7177;48.572;7.838;2023-02-28T11:57:20;17.95;;;12.80;;
14191;SDS011;7177;48.572;7.838;2023-02-28T12:03:08;18.27;;;11.98;;
14191;SDS011;7177;48.572;7.838;2023-02-28T12:05:44;14.85;;;11.15;;
14191;SDS011;7177;48.572;7.838;2023-02-28T12:08:21;18.30;;;11.23;;
14191;SDS011;7177;48.572;7.838;2023-02-28T12:13:29;17.02;;;11.18;;
14191;SDS011;7177;48.572;7.838;2023-02-28T12:16:27;15.45;;;11.70;;
14191;SDS011;7177;48.572;7.838;2023-02-28T12:25:17;18.00;;;12.85;;
14191;SDS011;7177;48.572;7.838;2023-02-28T12:27:46;16.35;;;12.60;;
14191;SDS011;7177;48.572;7.838;2023-02-28T12:30:13;16.52;;;12.90;;
14191;SDS011;7177;48.572;7.838;2023-02-28T12:33:06;15.07;;;11.60;;
14191;SDS011;7177;48.572;7.838;2023-02-28T12:35:52;15.15;;;11.98;;
14191;SDS011;7177;48.572;7.838;2023-02-28T12:38:22;16.42;;;11.73;;
14191;SDS011;7177;48.572;7.838;2023-02-28T12:40:56;15.95;;;11.30;;
14191;SDS011;7177;48.572;7.838;2023-02-28T12:43:50;15.60;;;11.60;;
14191;SDS011;7177;48.572;7.838;2023-02-28T12:46:29;18.90;;;13.15;;
14191;SDS011;7177;48.572;7.838;2023-02-28T12:49:00;17.48;;;13.13;;
14191;SDS011;7177;48.572;7.838;2023-02-28T12:51:31;16.25;;;11.95;;
14191;SDS011;7177;48.572;7.838;2023-02-28T12:57:02;16.95;;;12.73;;
14191;SDS011;7177;48.572;7.838;2023-02-28T13:02:18;14.68;;;11.75;;
14191;SDS011;7177;48.572;7.838;2023-02-28T13:05:10;13.43;;;10.57;;
14191;SDS011;7177;48.572;7.838;2023-02-28T13:08:03;15.60;;;11.30;;
14191;SDS011;7177;48.572;7.838;2023-02-28T13:10:49;15.60;;;11.15;;
14191;SDS011;7177;48.572;7.838;2023-02-28T13:13:20;14.45;;;11.52;;
14191;SDS011;7177;48.572;7.838;2023-02-28T13:16:07;15.77;;;11.88;;
14191;SDS011;7177;48.572;7.838;2023-02-28T13:18:38;16.77;;;11.75;;
14191;SDS011;7177;48.572;7.838;2023-02-28T13:21:08;16.08;;;12.43;;
14191;SDS011;7177;48.572;7.838;2023-02-28T13:23:39;14.10;;;10.98;;
14191;SDS011;7177;48.572;7.838;2023-02-28T13:29:04;16.05;;;10.55;;
14191;SDS011;7177;48.572;7.838;2023-02-28T13:32:35;13.93;;;10.85;;
14191;SDS011;7177;48.572;7.838;2023-02-28T13:37:33;16.37;;;11.70;;
14191;SDS011;7177;48.572;7.838;2023-02-28T13:43:02;11.80;;;9.50;;
14191;SDS011;7177;48.572;7.838;2023-02-28T13:45:32;13.63;;;10.77;;
14191;SDS011;7177;48.572;7.838;2023-02-28T13:48:04;15.52;;;11.02;;
14191;SDS011;7177;48.572;7.838;2023-02-28T13:50:41;17.77;;;11.48;;
14191;SDS011;7177;48.572;7.838;2023-02-28T13:55:46;13.57;;;11.20;;
14191;SDS011;7177;48.572;7.838;2023-02-28T13:58:41;13.83;;;10.57;;
14191;SDS011;7177;48.572;7.838;2023-02-28T14:07:08;13.73;;;10.07;;
14191;SDS011;7177;48.572;7.838;2023-02-28T14:09:44;13.73;;;10.00;;
14191;SDS011;7177;48.572;7.838;2023-02-28T14:15:26;14.57;;;10.47;;
14191;SDS011;7177;48.572;7.838;2023-02-28T14:18:01;13.13;;;9.97;;
14191;SDS011;7177;48.572;7.838;2023-02-28T14:20:31;14.87;;;10.87;;
14191;SDS011;7177;48.572;7.838;2023-02-28T14:31:19;11.80;;;9.50;;
14191;SDS011;7177;48.572;7.838;2023-02-28T14:37:00;12.37;;;9.27;;
14191;SDS011;7177;48.572;7.838;2023-02-28T14:39:27;13.40;;;10.30;;
14191;SDS011;7177;48.572;7.838;2023-02-28T14:41:59;15.63;;;10.10;;
14191;SDS011;7177;48.572;7.838;2023-02-28T14:44:29;13.70;;;10.63;;
14191;SDS011;7177;48.572;7.838;2023-02-28T14:46:56;12.83;;;10.27;;
14191;SDS011;7177;48.572;7.838;2023-02-28T14:52:05;14.57;;;11.20;;
14191;SDS011;7177;48.572;7.838;2023-02-28T14:54:35;15.40;;;10.47;;
14191;SDS011;7177;48.572;7.838;2023-02-28T14:57:01;13.97;;;9.93;;
14191;SDS011;7177;48.572;7.838;2023-02-28T14:59:31;16.47;;;11.20;;
14191;SDS011;7177;48.572;7.838;2023-02-28T15:02:15;18.23;;;12.07;;
14191;SDS011;7177;48.572;7.838;2023-02-28T15:04:59;14.63;;;11.20;;
14191;SDS011;7177;48.572;7.838;2023-02-28T15:07:26;13.83;;;10.80;;
14191;SDS011;7177;48.572;7.838;2023-02-28T15:12:53;16.00;;;11.63;;
14191;SDS011;7177;48.572;7.838;2023-02-28T15:15:25;14.07;;;10.90;;
14191;SDS011;7177;48.572;7.838;2023-02-28T15:18:00;17.33;;;11.70;;
14191;SDS011;7177;48.572;7.838;2023-02-28T15:20:30;13.93;;;10.77;;
14191;SDS011;7177;48.572;7.838;2023-02-28T15:22:57;18.07;;;15.43;;
14191;SDS011;7177;48.572;7.838;2023-02-28T15:25:23;16.40;;;12.73;;
14191;SDS011;7177;48.572;7.838;2023-02-28T15:27:51;13.53;;;10.37;;
14191;SDS011;7177;48.572;7.838;2023-02-28T15:30:25;17.33;;;11.77;;
14191;SDS011;7177;48.572;7.838;2023-02-28T15:35:45;16.80;;;12.53;;
14191;SDS011;7177;48.572;7.838;2023-02-28T15:38:25;18.17;;;12.57;;
14191;SDS011;7177;48.572;7.838;2023-02-28T15:40:56;17.17;;;13.20;;
14191;SDS011;7177;48.572;7.838;2023-02-28T15:43:26;15.43;;;12.43;;
14191;SDS011;7177;48.572;7.838;2023-02-28T15:46:01;21.70;;;13.60;;
14191;SDS011;7177;48.572;7.838;2023-02-28T15:48:42;19.13;;;13.43;;
14191;SDS011;7177;48.572;7.838;2023-02-28T15:51:19;13.73;;;10.17;;
14191;SDS011;7177;48.572;7.838;2023-02-28T15:53:51;16.53;;;12.00;;
14191;SDS011;7177;48.572;7.838;2023-02-28T15:58:53;16.17;;;13.20;;
14191;SDS011;7177;48.572;7.838;2023-02-28T16:01:23;20.23;;;13.38;;
14191;SDS011;7177;48.572;7.838;2023-02-28T16:03:51;16.93;;;12.57;;
14191;SDS011;7177;48.572;7.838;2023-02-28T16:08:58;17.30;;;12.70;;
14191;SDS011;7177;48.572;7.838;2023-02-28T16:11:24;24.00;;;15.27;;
14191;SDS011;7177;48.572;7.838;2023-02-28T16:13:50;17.97;;;12.07;;
14191;SDS011;7177;48.572;7.838;2023-02-28T16:16:21;16.08;;;12.40;;
14191;SDS011;7177;48.572;7.838;2023-02-28T16:18:49;15.43;;;12.10;;
14191;SDS011;7177;48.572;7.838;2023-02-28T16:21:15;15.05;;;11.35;;
14191;SDS011;7177;48.572;7.838;2023-02-28T16:23:41;17.50;;;13.02;;
14191;SDS011;7177;48.572;7.838;2023-02-28T16:26:06;17.63;;;12.50;;
14191;SDS011;7177;48.572;7.838;2023-02-28T16:28:34;16.98;;;13.05;;
14191;SDS011;7177;48.572;7.838;2023-02-28T16:31:02;15.50;;;12.10;;
14191;SDS011;7177;48.572;7.838;2023-02-28T16:33:30;16.98;;;12.93;;
14191;SDS011;7177;48.572;7.838;2023-02-28T16:35:57;18.80;;;14.23;;
14191;SDS011;7177;48.572;7.838;2023-02-28T16:38:22;15.97;;;13.07;;
14191;SDS011;7177;48.572;7.838;2023-02-28T16:40:50;16.40;;;13.35;;
14191;SDS011;7177;48.572;7.838;2023-02-28T16:43:17;19.02;;;13.82;;
14191;SDS011;7177;48.572;7.838;2023-02-28T16:45:47;18.98;;;13.90;;
14191;SDS011;7177;48.572;7.838;2023-02-28T16:48:13;20.80;;;14.90;;
14191;SDS011;7177;48.572;7.838;2023-02-28T16:50:40;16.95;;;13.35;;
14191;SDS011;7177;48.572;7.838;2023-02-28T16:53:07;16.70;;;13.10;;
14191;SDS011;7177;48.572;7.838;2023-02-28T16:55:32;17.80;;;13.80;;
14191;SDS011;7177;48.572;7.838;2023-02-28T16:57:59;29.73;;;15.55;;
14191;SDS011;7177;48.572;7.838;2023-02-28T17:00:27;24.30;;;17.60;;
14191;SDS011;7177;48.572;7.838;2023-02-28T17:02:54;21.00;;;16.35;;